sensor_id;sensor_type;location;lat;lon;timestamp;P1;durP1;ratioP1;P2;durP2;ratioP2
15748;SDS011;7976;52.526;13.326;2023-01-26T00:00:47;22.75;;;7.78;;
15748;SDS011;7976;52.526;13.326;2023-01-26T00:03:14;22.73;;;7.93;;
15748;SDS011;7976;52.526;13.326;2023-01-26T00:05:41;22.48;;;7.82;;
15748;SDS011;7976;52.526;13.326;2023-01-26T00:08:08;24.65;;;7.70;;
15748;SDS011;7976;52.526;13.326;2023-01-26T00:10:38;24.70;;;8.50;;
15748;SDS011;7976;52.526;13.326;2023-01-26T00:13:14;24.88;;;7.80;;
15748;SDS011;7976;52.526;13.326;2023-01-26T00:15:43;21.63;;;7.07;;
15748;SDS011;7976;52.526;13.326;2023-01-26T00:18:11;21.93;;;7.30;;
15748;SDS011;7976;52.526;13.326;2023-01-26T00:20:37;25.73;;;8.02;;
15748;SDS011;7976;52.526;13.326;2023-01-26T00:23:04;27.67;;;8.03;;
15748;SDS011;7976;52.526;13.326;2023-01-26T00:25:31;27.27;;;8.77;;
15748;SDS011;7976;52.526;13.326;2023-01-26T00:27:59;25.73;;;8.43;;
15748;SDS011;7976;52.526;13.326;2023-01-26T00:30:26;21.67;;;8.13;;
15748;SDS011;7976;52.526;13.326;2023-01-26T00:32:53;25.47;;;8.10;;
15748;SDS011;7976;52.526;13.326;2023-01-26T00:35:21;23.88;;;7.90;;
15748;SDS011;7976;52.526;13.326;2023-01-26T00:37:48;24.00;;;8.57;;
15748;SDS011;7976;52.526;13.326;2023-01-26T00:40:15;24.00;;;8.77;;
15748;SDS011;7976;52.526;13.326;2023-01-26T00:42:42;24.73;;;7.77;;
15748;SDS011;7976;52.526;13.326;2023-01-26T00:45:10;27.23;;;8.47;;
15748;SDS011;7976;52.526;13.326;2023-01-26T00:47:37;25.97;;;8.57;;
15748;SDS011;7976;52.526;13.326;2023-01-26T00:50:04;23.13;;;8.07;;
15748;SDS011;7976;52.526;13.326;2023-01-26T00:52:32;24.37;;;8.00;;
15748;SDS011;7976;52.526;13.326;2023-01-26T00:54:59;23.58;;;8.20;;
15748;SDS011;7976;52.526;13.326;2023-01-26T00:57:26;22.73;;;8.17;;
15748;SDS011;7976;52.526;13.326;2023-01-26T00:59:52;23.30;;;8.00;;
15748;SDS011;7976;52.526;13.326;2023-01-26T01:02:20;28.77;;;9.07;;
15748;SDS011;7976;52.526;13.326;2023-01-26T01:04:47;21.40;;;8.13;;
15748;SDS011;7976;52.526;13.326;2023-01-26T01:07:14;28.73;;;8.83;;
15748;SDS011;7976;52.526;13.326;2023-01-26T01:09:41;24.13;;;9.23;;
15748;SDS011;7976;52.526;13.326;2023-01-26T01:20:27;27.17;;;9.32;;
15748;SDS011;7976;52.526;13.326;2023-01-26T01:23:14;26.20;;;9.47;;
15748;SDS011;7976;52.526;13.326;2023-01-26T01:25:44;29.10;;;10.02;;
15748;SDS011;7976;52.526;13.326;2023-01-26T01:31:14;34.10;;;9.45;;
15748;SDS011;7976;52.526;13.326;2023-01-26T01:37:47;30.47;;;10.50;;
15748;SDS011;7976;52.526;13.326;2023-01-26T01:48:57;31.63;;;9.50;;
15748;SDS011;7976;52.526;13.326;2023-01-26T01:55:40;27.07;;;8.93;;
15748;SDS011;7976;52.526;13.326;2023-01-26T01:58:11;26.77;;;9.33;;
15748;SDS011;7976;52.526;13.326;2023-01-26T02:00:49;24.23;;;8.70;;
15748;SDS011;7976;52.526;13.326;2023-01-26T02:03:36;22.43;;;7.90;;
15748;SDS011;7976;52.526;13.326;2023-01-26T02:08:49;26.50;;;9.40;;
15748;SDS011;7976;52.526;13.326;2023-01-26T02:12:08;24.90;;;9.03;;
15748;SDS011;7976;52.526;13.326;2023-01-26T02:14:40;28.20;;;9.47;;
15748;SDS011;7976;52.526;13.326;2023-01-26T02:17:22;28.27;;;9.87;;
15748;SDS011;7976;52.526;13.326;2023-01-26T02:20:11;25.10;;;9.23;;
15748;SDS011;7976;52.526;13.326;2023-01-26T02:23:19;32.50;;;9.60;;
15748;SDS011;7976;52.526;13.326;2023-01-26T02:32:54;29.27;;;10.97;;
15748;SDS011;7976;52.526;13.326;2023-01-26T02:35:57;34.03;;;12.43;;
15748;SDS011;7976;52.526;13.326;2023-01-26T02:38:33;27.23;;;9.17;;
15748;SDS011;7976;52.526;13.326;2023-01-26T02:41:18;27.03;;;8.53;;
15748;SDS011;7976;52.526;13.326;2023-01-26T02:52:18;30.50;;;9.33;;
15748;SDS011;7976;52.526;13.326;2023-01-26T02:58:00;27.63;;;9.93;;
15748;SDS011;7976;52.526;13.326;2023-01-26T03:00:38;33.40;;;10.70;;
15748;SDS011;7976;52.526;13.326;2023-01-26T03:14:16;27.90;;;9.25;;
15748;SDS011;7976;52.526;13.326;2023-01-26T03:17:19;26.07;;;8.00;;
15748;SDS011;7976;52.526;13.326;2023-01-26T03:20:26;33.93;;;9.37;;
15748;SDS011;7976;52.526;13.326;2023-01-26T03:23:13;30.63;;;9.60;;
15748;SDS011;7976;52.526;13.326;2023-01-26T03:29:08;25.67;;;8.35;;
15748;SDS011;7976;52.526;13.326;2023-01-26T03:32:15;24.97;;;8.83;;
15748;SDS011;7976;52.526;13.326;2023-01-26T03:34:43;20.83;;;8.10;;
15748;SDS011;7976;52.526;13.326;2023-01-26T03:54:39;23.80;;;7.05;;
15748;SDS011;7976;52.526;13.326;2023-01-26T03:57:24;22.83;;;7.40;;
15748;SDS011;7976;52.526;13.326;2023-01-26T03:59:54;19.33;;;6.90;;
15748;SDS011;7976;52.526;13.326;2023-01-26T04:02:24;22.07;;;7.97;;
15748;SDS011;7976;52.526;13.326;2023-01-26T04:05:10;22.60;;;7.63;;
15748;SDS011;7976;52.526;13.326;2023-01-26T04:08:00;23.90;;;7.10;;
15748;SDS011;7976;52.526;13.326;2023-01-26T04:10:53;24.38;;;7.85;;
15748;SDS011;7976;52.526;13.326;2023-01-26T04:13:21;21.75;;;7.43;;
15748;SDS011;7976;52.526;13.326;2023-01-26T04:16:12;19.80;;;6.80;;
15748;SDS011;7976;52.526;13.326;2023-01-26T04:18:56;22.98;;;7.25;;
15748;SDS011;7976;52.526;13.326;2023-01-26T04:21:41;18.73;;;6.07;;
15748;SDS011;7976;52.526;13.326;2023-01-26T04:24:13;19.48;;;7.18;;
15748;SDS011;7976;52.526;13.326;2023-01-26T04:26:42;19.10;;;7.80;;
15748;SDS011;7976;52.526;13.326;2023-01-26T04:29:14;25.00;;;8.13;;
15748;SDS011;7976;52.526;13.326;2023-01-26T04:31:42;23.47;;;8.73;;
15748;SDS011;7976;52.526;13.326;2023-01-26T04:34:12;25.03;;;7.73;;
15748;SDS011;7976;52.526;13.326;2023-01-26T04:36:40;24.27;;;7.57;;
15748;SDS011;7976;52.526;13.326;2023-01-26T04:39:08;24.00;;;7.47;;
15748;SDS011;7976;52.526;13.326;2023-01-26T04:41:39;22.42;;;7.93;;
15748;SDS011;7976;52.526;13.326;2023-01-26T04:44:10;22.27;;;8.05;;
15748;SDS011;7976;52.526;13.326;2023-01-26T04:46:37;25.57;;;8.43;;
15748;SDS011;7976;52.526;13.326;2023-01-26T04:49:05;22.77;;;7.30;;
15748;SDS011;7976;52.526;13.326;2023-01-26T04:51:32;23.80;;;7.27;;
15748;SDS011;7976;52.526;13.326;2023-01-26T04:54:00;25.63;;;8.60;;
15748;SDS011;7976;52.526;13.326;2023-01-26T04:56:27;25.80;;;8.03;;
15748;SDS011;7976;52.526;13.326;2023-01-26T04:58:59;26.73;;;7.80;;
15748;SDS011;7976;52.526;13.326;2023-01-26T05:01:35;22.23;;;7.63;;
15748;SDS011;7976;52.526;13.326;2023-01-26T05:04:05;26.73;;;8.77;;
15748;SDS011;7976;52.526;13.326;2023-01-26T05:06:34;28.23;;;9.47;;
15748;SDS011;7976;52.526;13.326;2023-01-26T05:09:02;28.73;;;9.00;;
15748;SDS011;7976;52.526;13.326;2023-01-26T05:11:31;28.35;;;7.82;;
15748;SDS011;7976;52.526;13.326;2023-01-26T05:14:06;25.55;;;7.50;;
15748;SDS011;7976;52.526;13.326;2023-01-26T05:16:53;20.17;;;7.30;;
15748;SDS011;7976;52.526;13.326;2023-01-26T05:19:25;21.55;;;7.50;;
15748;SDS011;7976;52.526;13.326;2023-01-26T05:22:07;23.37;;;8.10;;
15748;SDS011;7976;52.526;13.326;2023-01-26T05:24:35;22.50;;;7.20;;
15748;SDS011;7976;52.526;13.326;2023-01-26T05:27:25;21.77;;;6.90;;
15748;SDS011;7976;52.526;13.326;2023-01-26T05:29:58;25.20;;;6.90;;
15748;SDS011;7976;52.526;13.326;2023-01-26T05:32:27;21.37;;;7.67;;
15748;SDS011;7976;52.526;13.326;2023-01-26T05:34:56;22.33;;;6.67;;
15748;SDS011;7976;52.526;13.326;2023-01-26T05:37:23;23.95;;;7.13;;
15748;SDS011;7976;52.526;13.326;2023-01-26T05:39:51;21.77;;;7.00;;
15748;SDS011;7976;52.526;13.326;2023-01-26T05:42:18;22.38;;;7.30;;
15748;SDS011;7976;52.526;13.326;2023-01-26T05:45:04;22.43;;;6.90;;
15748;SDS011;7976;52.526;13.326;2023-01-26T05:47:34;21.03;;;6.80;;
15748;SDS011;7976;52.526;13.326;2023-01-26T05:50:01;22.70;;;7.03;;
15748;SDS011;7976;52.526;13.326;2023-01-26T05:52:30;21.77;;;6.63;;
15748;SDS011;7976;52.526;13.326;2023-01-26T05:54:57;18.27;;;5.63;;
15748;SDS011;7976;52.526;13.326;2023-01-26T05:57:25;20.63;;;6.15;;
15748;SDS011;7976;52.526;13.326;2023-01-26T05:59:56;17.58;;;5.70;;
15748;SDS011;7976;52.526;13.326;2023-01-26T06:02:23;14.73;;;5.10;;
15748;SDS011;7976;52.526;13.326;2023-01-26T06:04:53;18.83;;;5.43;;
15748;SDS011;7976;52.526;13.326;2023-01-26T06:07:20;21.73;;;6.13;;
15748;SDS011;7976;52.526;13.326;2023-01-26T06:10:25;17.43;;;4.80;;
15748;SDS011;7976;52.526;13.326;2023-01-26T06:13:01;20.87;;;6.13;;
15748;SDS011;7976;52.526;13.326;2023-01-26T06:15:38;20.93;;;7.20;;
15748;SDS011;7976;52.526;13.326;2023-01-26T06:18:06;25.33;;;6.72;;
15748;SDS011;7976;52.526;13.326;2023-01-26T06:20:35;28.17;;;9.83;;
15748;SDS011;7976;52.526;13.326;2023-01-26T06:23:03;23.63;;;7.03;;
15748;SDS011;7976;52.526;13.326;2023-01-26T06:25:36;22.23;;;7.10;;
15748;SDS011;7976;52.526;13.326;2023-01-26T06:28:04;20.48;;;6.57;;
15748;SDS011;7976;52.526;13.326;2023-01-26T06:30:31;18.30;;;6.60;;
15748;SDS011;7976;52.526;13.326;2023-01-26T06:33:03;24.67;;;6.90;;
15748;SDS011;7976;52.526;13.326;2023-01-26T06:35:34;20.60;;;6.10;;
15748;SDS011;7976;52.526;13.326;2023-01-26T06:38:03;21.13;;;6.30;;
15748;SDS011;7976;52.526;13.326;2023-01-26T06:40:30;20.83;;;6.85;;
15748;SDS011;7976;52.526;13.326;2023-01-26T06:42:57;23.77;;;7.00;;
15748;SDS011;7976;52.526;13.326;2023-01-26T06:45:24;21.00;;;7.00;;
15748;SDS011;7976;52.526;13.326;2023-01-26T06:47:51;21.13;;;7.05;;
15748;SDS011;7976;52.526;13.326;2023-01-26T06:50:19;26.47;;;6.83;;
15748;SDS011;7976;52.526;13.326;2023-01-26T06:52:55;23.35;;;6.63;;
15748;SDS011;7976;52.526;13.326;2023-01-26T06:55:40;20.92;;;6.53;;
15748;SDS011;7976;52.526;13.326;2023-01-26T06:58:26;21.47;;;6.27;;
15748;SDS011;7976;52.526;13.326;2023-01-26T07:01:20;22.37;;;6.50;;
15748;SDS011;7976;52.526;13.326;2023-01-26T07:03:51;18.20;;;5.90;;
15748;SDS011;7976;52.526;13.326;2023-01-26T07:06:19;22.80;;;6.77;;
15748;SDS011;7976;52.526;13.326;2023-01-26T07:08:48;20.30;;;6.23;;
15748;SDS011;7976;52.526;13.326;2023-01-26T07:11:15;18.87;;;5.93;;
15748;SDS011;7976;52.526;13.326;2023-01-26T07:13:45;18.73;;;5.57;;
15748;SDS011;7976;52.526;13.326;2023-01-26T07:16:13;16.33;;;5.10;;
15748;SDS011;7976;52.526;13.326;2023-01-26T07:18:41;18.20;;;5.70;;
15748;SDS011;7976;52.526;13.326;2023-01-26T07:21:10;17.73;;;5.93;;
15748;SDS011;7976;52.526;13.326;2023-01-26T07:23:39;15.90;;;5.03;;
15748;SDS011;7976;52.526;13.326;2023-01-26T07:26:07;18.03;;;5.77;;
15748;SDS011;7976;52.526;13.326;2023-01-26T07:28:34;16.37;;;5.50;;
15748;SDS011;7976;52.526;13.326;2023-01-26T07:31:02;17.52;;;5.78;;
15748;SDS011;7976;52.526;13.326;2023-01-26T07:33:31;18.10;;;5.40;;
15748;SDS011;7976;52.526;13.326;2023-01-26T07:35:59;16.30;;;5.90;;
15748;SDS011;7976;52.526;13.326;2023-01-26T07:38:28;15.30;;;5.63;;
15748;SDS011;7976;52.526;13.326;2023-01-26T07:40:55;19.87;;;5.93;;
15748;SDS011;7976;52.526;13.326;2023-01-26T07:43:24;14.43;;;4.67;;
15748;SDS011;7976;52.526;13.326;2023-01-26T07:45:52;17.20;;;5.07;;
15748;SDS011;7976;52.526;13.326;2023-01-26T07:48:20;19.93;;;6.30;;
15748;SDS011;7976;52.526;13.326;2023-01-26T07:50:49;15.60;;;4.90;;
15748;SDS011;7976;52.526;13.326;2023-01-26T07:53:16;22.10;;;7.00;;
15748;SDS011;7976;52.526;13.326;2023-01-26T07:55:47;17.37;;;5.27;;
15748;SDS011;7976;52.526;13.326;2023-01-26T07:58:14;15.30;;;5.13;;
15748;SDS011;7976;52.526;13.326;2023-01-26T08:00:43;17.17;;;5.80;;
15748;SDS011;7976;52.526;13.326;2023-01-26T08:03:11;17.77;;;6.27;;
15748;SDS011;7976;52.526;13.326;2023-01-26T08:05:38;18.60;;;5.83;;
15748;SDS011;7976;52.526;13.326;2023-01-26T08:08:07;23.80;;;7.63;;
15748;SDS011;7976;52.526;13.326;2023-01-26T08:10:34;20.37;;;7.67;;
15748;SDS011;7976;52.526;13.326;2023-01-26T08:13:01;25.33;;;6.83;;
15748;SDS011;7976;52.526;13.326;2023-01-26T08:15:28;17.07;;;5.57;;
15748;SDS011;7976;52.526;13.326;2023-01-26T08:17:57;27.33;;;8.53;;
15748;SDS011;7976;52.526;13.326;2023-01-26T08:20:28;22.03;;;7.57;;
15748;SDS011;7976;52.526;13.326;2023-01-26T08:22:55;19.50;;;6.10;;
15748;SDS011;7976;52.526;13.326;2023-01-26T08:25:22;21.03;;;6.53;;
15748;SDS011;7976;52.526;13.326;2023-01-26T08:27:49;21.00;;;6.20;;
15748;SDS011;7976;52.526;13.326;2023-01-26T08:30:16;19.77;;;6.73;;
15748;SDS011;7976;52.526;13.326;2023-01-26T08:32:43;24.23;;;8.43;;
15748;SDS011;7976;52.526;13.326;2023-01-26T08:35:11;16.80;;;6.23;;
15748;SDS011;7976;52.526;13.326;2023-01-26T08:37:38;27.17;;;8.37;;
15748;SDS011;7976;52.526;13.326;2023-01-26T08:40:05;14.37;;;5.40;;
15748;SDS011;7976;52.526;13.326;2023-01-26T08:42:34;16.20;;;5.53;;
15748;SDS011;7976;52.526;13.326;2023-01-26T08:45:01;15.13;;;4.53;;
15748;SDS011;7976;52.526;13.326;2023-01-26T08:47:28;17.70;;;5.03;;
15748;SDS011;7976;52.526;13.326;2023-01-26T08:49:54;19.00;;;7.43;;
15748;SDS011;7976;52.526;13.326;2023-01-26T08:52:22;18.73;;;6.73;;
15748;SDS011;7976;52.526;13.326;2023-01-26T08:54:49;14.90;;;5.03;;
15748;SDS011;7976;52.526;13.326;2023-01-26T08:57:16;14.47;;;5.20;;
15748;SDS011;7976;52.526;13.326;2023-01-26T08:59:43;18.17;;;5.57;;
15748;SDS011;7976;52.526;13.326;2023-01-26T09:02:10;20.73;;;7.30;;
15748;SDS011;7976;52.526;13.326;2023-01-26T09:04:37;17.57;;;5.90;;
15748;SDS011;7976;52.526;13.326;2023-01-26T09:07:03;17.40;;;5.70;;
15748;SDS011;7976;52.526;13.326;2023-01-26T09:09:32;13.27;;;4.50;;
15748;SDS011;7976;52.526;13.326;2023-01-26T09:11:59;17.23;;;5.60;;
15748;SDS011;7976;52.526;13.326;2023-01-26T09:14:25;15.03;;;4.90;;
15748;SDS011;7976;52.526;13.326;2023-01-26T09:16:53;15.53;;;5.53;;
15748;SDS011;7976;52.526;13.326;2023-01-26T09:19:20;15.40;;;5.00;;
15748;SDS011;7976;52.526;13.326;2023-01-26T09:21:50;14.00;;;5.03;;
15748;SDS011;7976;52.526;13.326;2023-01-26T09:24:18;19.13;;;6.27;;
15748;SDS011;7976;52.526;13.326;2023-01-26T09:26:46;14.43;;;4.97;;
15748;SDS011;7976;52.526;13.326;2023-01-26T09:29:13;16.13;;;5.67;;
15748;SDS011;7976;52.526;13.326;2023-01-26T09:31:41;16.53;;;6.43;;
15748;SDS011;7976;52.526;13.326;2023-01-26T09:34:08;21.50;;;7.33;;
15748;SDS011;7976;52.526;13.326;2023-01-26T09:36:35;19.00;;;5.97;;
15748;SDS011;7976;52.526;13.326;2023-01-26T09:39:02;17.27;;;6.13;;
15748;SDS011;7976;52.526;13.326;2023-01-26T09:44:30;16.30;;;5.17;;
15748;SDS011;7976;52.526;13.326;2023-01-26T09:47:08;17.23;;;6.07;;
15748;SDS011;7976;52.526;13.326;2023-01-26T09:49:52;19.77;;;5.70;;
15748;SDS011;7976;52.526;13.326;2023-01-26T09:52:27;19.57;;;5.93;;
15748;SDS011;7976;52.526;13.326;2023-01-26T09:55:01;20.00;;;5.77;;
15748;SDS011;7976;52.526;13.326;2023-01-26T09:57:34;17.40;;;5.70;;
15748;SDS011;7976;52.526;13.326;2023-01-26T10:00:07;15.70;;;5.40;;
15748;SDS011;7976;52.526;13.326;2023-01-26T10:02:48;18.70;;;6.30;;
15748;SDS011;7976;52.526;13.326;2023-01-26T10:05:39;21.13;;;7.97;;
15748;SDS011;7976;52.526;13.326;2023-01-26T10:08:33;18.43;;;6.53;;
15748;SDS011;7976;52.526;13.326;2023-01-26T10:11:01;15.40;;;5.57;;
15748;SDS011;7976;52.526;13.326;2023-01-26T10:13:47;15.90;;;6.00;;
15748;SDS011;7976;52.526;13.326;2023-01-26T10:16:20;17.43;;;6.40;;
15748;SDS011;7976;52.526;13.326;2023-01-26T10:18:51;16.80;;;6.47;;
15748;SDS011;7976;52.526;13.326;2023-01-26T10:21:26;16.07;;;5.63;;
15748;SDS011;7976;52.526;13.326;2023-01-26T10:24:00;21.97;;;6.17;;
15748;SDS011;7976;52.526;13.326;2023-01-26T10:26:30;16.90;;;5.90;;
15748;SDS011;7976;52.526;13.326;2023-01-26T10:29:00;18.43;;;6.23;;
15748;SDS011;7976;52.526;13.326;2023-01-26T10:31:29;16.57;;;5.67;;
15748;SDS011;7976;52.526;13.326;2023-01-26T10:33:59;17.00;;;5.53;;
15748;SDS011;7976;52.526;13.326;2023-01-26T10:36:38;18.37;;;6.03;;
15748;SDS011;7976;52.526;13.326;2023-01-26T10:39:07;17.90;;;6.03;;
15748;SDS011;7976;52.526;13.326;2023-01-26T10:41:37;25.53;;;7.07;;
15748;SDS011;7976;52.526;13.326;2023-01-26T10:44:19;16.63;;;5.87;;
15748;SDS011;7976;52.526;13.326;2023-01-26T10:47:01;15.87;;;5.20;;
15748;SDS011;7976;52.526;13.326;2023-01-26T10:49:32;14.73;;;5.40;;
15748;SDS011;7976;52.526;13.326;2023-01-26T10:52:06;16.03;;;5.50;;
15748;SDS011;7976;52.526;13.326;2023-01-26T10:54:41;18.40;;;6.20;;
15748;SDS011;7976;52.526;13.326;2023-01-26T10:57:13;16.63;;;5.53;;
15748;SDS011;7976;52.526;13.326;2023-01-26T10:59:50;16.80;;;6.30;;
15748;SDS011;7976;52.526;13.326;2023-01-26T11:02:22;15.43;;;5.40;;
15748;SDS011;7976;52.526;13.326;2023-01-26T11:05:03;17.53;;;5.60;;
15748;SDS011;7976;52.526;13.326;2023-01-26T11:07:46;17.63;;;6.10;;
15748;SDS011;7976;52.526;13.326;2023-01-26T11:10:17;15.33;;;5.50;;
15748;SDS011;7976;52.526;13.326;2023-01-26T11:12:48;17.00;;;5.83;;
15748;SDS011;7976;52.526;13.326;2023-01-26T11:15:18;16.47;;;5.50;;
15748;SDS011;7976;52.526;13.326;2023-01-26T11:17:49;18.80;;;6.23;;
15748;SDS011;7976;52.526;13.326;2023-01-26T11:20:28;15.70;;;5.40;;
15748;SDS011;7976;52.526;13.326;2023-01-26T11:23:13;17.33;;;5.83;;
15748;SDS011;7976;52.526;13.326;2023-01-26T11:25:59;17.53;;;5.87;;
15748;SDS011;7976;52.526;13.326;2023-01-26T11:28:55;14.60;;;5.10;;
15748;SDS011;7976;52.526;13.326;2023-01-26T11:31:41;20.10;;;7.53;;
15748;SDS011;7976;52.526;13.326;2023-01-26T11:34:23;14.80;;;5.60;;
15748;SDS011;7976;52.526;13.326;2023-01-26T11:37:12;17.13;;;6.73;;
15748;SDS011;7976;52.526;13.326;2023-01-26T11:40:18;16.80;;;7.07;;
15748;SDS011;7976;52.526;13.326;2023-01-26T11:43:02;16.43;;;5.20;;
15748;SDS011;7976;52.526;13.326;2023-01-26T11:45:51;14.13;;;4.73;;
15748;SDS011;7976;52.526;13.326;2023-01-26T11:48:50;14.97;;;5.20;;
15748;SDS011;7976;52.526;13.326;2023-01-26T11:51:36;17.53;;;6.27;;
15748;SDS011;7976;52.526;13.326;2023-01-26T11:57:28;14.97;;;5.27;;
15748;SDS011;7976;52.526;13.326;2023-01-26T12:00:12;16.80;;;5.93;;
15748;SDS011;7976;52.526;13.326;2023-01-26T12:02:50;15.03;;;5.67;;
15748;SDS011;7976;52.526;13.326;2023-01-26T12:05:29;14.85;;;6.10;;
15748;SDS011;7976;52.526;13.326;2023-01-26T12:08:03;14.93;;;5.47;;
15748;SDS011;7976;52.526;13.326;2023-01-26T12:10:42;14.67;;;4.77;;
15748;SDS011;7976;52.526;13.326;2023-01-26T12:13:18;15.67;;;5.67;;
15748;SDS011;7976;52.526;13.326;2023-01-26T12:15:59;13.67;;;4.37;;
15748;SDS011;7976;52.526;13.326;2023-01-26T12:18:38;13.00;;;4.47;;
15748;SDS011;7976;52.526;13.326;2023-01-26T12:21:14;13.80;;;4.07;;
15748;SDS011;7976;52.526;13.326;2023-01-26T12:23:46;11.30;;;4.00;;
15748;SDS011;7976;52.526;13.326;2023-01-26T12:26:23;12.23;;;4.33;;
15748;SDS011;7976;52.526;13.326;2023-01-26T12:28:59;12.03;;;4.03;;
15748;SDS011;7976;52.526;13.326;2023-01-26T12:31:39;14.33;;;3.97;;
15748;SDS011;7976;52.526;13.326;2023-01-26T12:34:14;10.97;;;3.70;;
15748;SDS011;7976;52.526;13.326;2023-01-26T12:36:43;13.13;;;4.63;;
15748;SDS011;7976;52.526;13.326;2023-01-26T12:39:24;12.13;;;4.53;;
15748;SDS011;7976;52.526;13.326;2023-01-26T12:42:01;13.50;;;4.40;;
15748;SDS011;7976;52.526;13.326;2023-01-26T12:44:53;12.47;;;4.30;;
15748;SDS011;7976;52.526;13.326;2023-01-26T12:47:26;11.80;;;3.93;;
15748;SDS011;7976;52.526;13.326;2023-01-26T12:50:00;11.77;;;4.27;;
15748;SDS011;7976;52.526;13.326;2023-01-26T12:52:37;11.67;;;3.83;;
15748;SDS011;7976;52.526;13.326;2023-01-26T12:55:13;12.50;;;4.30;;
15748;SDS011;7976;52.526;13.326;2023-01-26T12:57:48;12.03;;;4.00;;
15748;SDS011;7976;52.526;13.326;2023-01-26T13:00:21;15.47;;;4.70;;
15748;SDS011;7976;52.526;13.326;2023-01-26T13:02:54;13.23;;;4.15;;
15748;SDS011;7976;52.526;13.326;2023-01-26T13:05:26;12.27;;;4.37;;
15748;SDS011;7976;52.526;13.326;2023-01-26T13:07:57;12.93;;;4.47;;
15748;SDS011;7976;52.526;13.326;2023-01-26T13:10:25;12.43;;;4.30;;
15748;SDS011;7976;52.526;13.326;2023-01-26T13:18:59;11.13;;;4.40;;
15748;SDS011;7976;52.526;13.326;2023-01-26T13:21:27;14.73;;;4.77;;
15748;SDS011;7976;52.526;13.326;2023-01-26T13:27:26;13.90;;;5.37;;
15748;SDS011;7976;52.526;13.326;2023-01-26T13:29:57;17.03;;;5.90;;
15748;SDS011;7976;52.526;13.326;2023-01-26T13:35:36;17.10;;;5.67;;
15748;SDS011;7976;52.526;13.326;2023-01-26T13:38:07;13.27;;;4.43;;
15748;SDS011;7976;52.526;13.326;2023-01-26T13:40:44;16.92;;;5.35;;
15748;SDS011;7976;52.526;13.326;2023-01-26T13:43:16;13.57;;;4.97;;
15748;SDS011;7976;52.526;13.326;2023-01-26T13:45:58;14.03;;;5.00;;
15748;SDS011;7976;52.526;13.326;2023-01-26T13:48:36;13.73;;;5.00;;
15748;SDS011;7976;52.526;13.326;2023-01-26T13:51:13;16.77;;;5.40;;
15748;SDS011;7976;52.526;13.326;2023-01-26T13:53:46;14.63;;;5.30;;
15748;SDS011;7976;52.526;13.326;2023-01-26T13:56:29;19.43;;;5.93;;
15748;SDS011;7976;52.526;13.326;2023-01-26T13:59:07;18.17;;;5.67;;
15748;SDS011;7976;52.526;13.326;2023-01-26T14:01:43;15.70;;;5.77;;
15748;SDS011;7976;52.526;13.326;2023-01-26T14:04:13;16.23;;;5.73;;
15748;SDS011;7976;52.526;13.326;2023-01-26T14:06:43;21.13;;;7.17;;
15748;SDS011;7976;52.526;13.326;2023-01-26T14:09:16;16.77;;;6.20;;
15748;SDS011;7976;52.526;13.326;2023-01-26T14:11:45;16.00;;;5.83;;
15748;SDS011;7976;52.526;13.326;2023-01-26T14:14:24;19.07;;;6.00;;
15748;SDS011;7976;52.526;13.326;2023-01-26T14:16:53;14.97;;;5.03;;
15748;SDS011;7976;52.526;13.326;2023-01-26T14:19:23;16.93;;;5.50;;
15748;SDS011;7976;52.526;13.326;2023-01-26T14:21:53;15.73;;;5.20;;
15748;SDS011;7976;52.526;13.326;2023-01-26T14:24:25;17.80;;;5.53;;
15748;SDS011;7976;52.526;13.326;2023-01-26T14:27:00;16.50;;;5.70;;
15748;SDS011;7976;52.526;13.326;2023-01-26T14:29:29;15.67;;;5.43;;
15748;SDS011;7976;52.526;13.326;2023-01-26T14:31:56;15.97;;;5.50;;
15748;SDS011;7976;52.526;13.326;2023-01-26T14:34:26;14.97;;;5.23;;
15748;SDS011;7976;52.526;13.326;2023-01-26T14:37:05;15.37;;;6.17;;
15748;SDS011;7976;52.526;13.326;2023-01-26T14:39:38;14.80;;;5.87;;
15748;SDS011;7976;52.526;13.326;2023-01-26T14:42:10;17.20;;;6.07;;
15748;SDS011;7976;52.526;13.326;2023-01-26T14:44:40;18.17;;;6.27;;
15748;SDS011;7976;52.526;13.326;2023-01-26T14:47:08;18.67;;;6.53;;
15748;SDS011;7976;52.526;13.326;2023-01-26T14:49:45;18.10;;;6.10;;
15748;SDS011;7976;52.526;13.326;2023-01-26T14:52:20;24.13;;;8.00;;
15748;SDS011;7976;52.526;13.326;2023-01-26T14:54:50;19.37;;;7.00;;
15748;SDS011;7976;52.526;13.326;2023-01-26T14:57:21;20.93;;;6.93;;
15748;SDS011;7976;52.526;13.326;2023-01-26T14:59:51;26.57;;;9.57;;
15748;SDS011;7976;52.526;13.326;2023-01-26T15:02:22;22.40;;;7.43;;
15748;SDS011;7976;52.526;13.326;2023-01-26T15:04:52;19.33;;;7.33;;
15748;SDS011;7976;52.526;13.326;2023-01-26T15:07:32;22.13;;;8.07;;
15748;SDS011;7976;52.526;13.326;2023-01-26T15:10:04;25.30;;;9.23;;
15748;SDS011;7976;52.526;13.326;2023-01-26T15:12:58;23.20;;;7.87;;
15748;SDS011;7976;52.526;13.326;2023-01-26T15:15:31;22.53;;;8.10;;
15748;SDS011;7976;52.526;13.326;2023-01-26T15:18:05;26.10;;;9.00;;
15748;SDS011;7976;52.526;13.326;2023-01-26T15:20:45;22.77;;;7.27;;
15748;SDS011;7976;52.526;13.326;2023-01-26T15:23:25;24.70;;;9.17;;
15748;SDS011;7976;52.526;13.326;2023-01-26T15:25:55;21.53;;;8.03;;
15748;SDS011;7976;52.526;13.326;2023-01-26T15:28:33;24.97;;;8.37;;
15748;SDS011;7976;52.526;13.326;2023-01-26T15:31:01;27.60;;;9.43;;
15748;SDS011;7976;52.526;13.326;2023-01-26T15:33:36;29.50;;;10.07;;
15748;SDS011;7976;52.526;13.326;2023-01-26T15:36:28;24.40;;;8.43;;
15748;SDS011;7976;52.526;13.326;2023-01-26T15:38:59;25.43;;;8.47;;
15748;SDS011;7976;52.526;13.326;2023-01-26T15:41:35;27.70;;;9.33;;
15748;SDS011;7976;52.526;13.326;2023-01-26T15:44:03;27.40;;;10.47;;
15748;SDS011;7976;52.526;13.326;2023-01-26T15:46:30;25.43;;;9.20;;
15748;SDS011;7976;52.526;13.326;2023-01-26T15:48:57;23.93;;;9.00;;
15748;SDS011;7976;52.526;13.326;2023-01-26T15:51:23;23.70;;;8.93;;
15748;SDS011;7976;52.526;13.326;2023-01-26T15:53:50;26.47;;;9.17;;
15748;SDS011;7976;52.526;13.326;2023-01-26T15:56:17;30.57;;;9.10;;
15748;SDS011;7976;52.526;13.326;2023-01-26T15:58:43;23.47;;;8.30;;
15748;SDS011;7976;52.526;13.326;2023-01-26T16:01:15;23.87;;;8.03;;
15748;SDS011;7976;52.526;13.326;2023-01-26T16:03:47;22.27;;;8.33;;
15748;SDS011;7976;52.526;13.326;2023-01-26T16:06:18;22.63;;;8.17;;
15748;SDS011;7976;52.526;13.326;2023-01-26T16:08:49;26.67;;;8.90;;
15748;SDS011;7976;52.526;13.326;2023-01-26T16:11:16;32.13;;;11.20;;
15748;SDS011;7976;52.526;13.326;2023-01-26T16:13:43;24.47;;;9.03;;
15748;SDS011;7976;52.526;13.326;2023-01-26T16:16:11;26.83;;;8.40;;
15748;SDS011;7976;52.526;13.326;2023-01-26T16:18:41;25.70;;;9.10;;
15748;SDS011;7976;52.526;13.326;2023-01-26T16:21:13;25.93;;;9.00;;
15748;SDS011;7976;52.526;13.326;2023-01-26T16:23:43;23.23;;;8.50;;
15748;SDS011;7976;52.526;13.326;2023-01-26T16:26:11;28.77;;;8.77;;
15748;SDS011;7976;52.526;13.326;2023-01-26T16:28:40;25.37;;;7.93;;
15748;SDS011;7976;52.526;13.326;2023-01-26T16:31:11;24.30;;;8.53;;
15748;SDS011;7976;52.526;13.326;2023-01-26T16:33:41;28.83;;;8.80;;
15748;SDS011;7976;52.526;13.326;2023-01-26T16:36:12;25.17;;;8.80;;
15748;SDS011;7976;52.526;13.326;2023-01-26T16:38:41;27.38;;;9.45;;
15748;SDS011;7976;52.526;13.326;2023-01-26T16:41:12;27.90;;;9.80;;
15748;SDS011;7976;52.526;13.326;2023-01-26T16:43:41;24.23;;;8.50;;
15748;SDS011;7976;52.526;13.326;2023-01-26T16:46:08;23.07;;;8.33;;
15748;SDS011;7976;52.526;13.326;2023-01-26T16:48:36;27.33;;;9.13;;